Black Eagle — WDJJ — position and weather

sailwx.info

Track history (hours):
 
Tides and Currents Weather Stations Pressure Air Temp Water Temp Dewpoint Dewpoint Depression Visibility Wind Speed Wind Dir Waves Ship Positions

Black Eagle

Owner: Sealift Inc., Oyster Bay, NY. More information available from US FCC via Universal Licensing System and Coast Guard Vessel Documentation Center.

Last reported at 2018-Apr-21 06:40 UTC. Time now 2018-Apr-21 09:56 UTC.
Position N 35°49' E 016°33'.

Length 190 m; draft 9 m.

Type: Cargo ship. MMSI: 369542000.

Date/timePositionNaut miles runAvg speedWind from/ knotsBaromVisibWave heightAir tempDewpointWater temp
2018-Apr-21 06:40N 35°49' E 016°33'315.3
2018-Apr-21 06:30N 35°48' E 016°36'69114.1
2018-Apr-19 05:25N 34°14' E 030°32'913.1
2018-Apr-19 04:42N 34°14' E 030°43'313.2
2018-Apr-19 04:30N 34°13' E 030°46'713.3
2018-Apr-19 04:01N 34°13' E 030°54'713.4
2018-Apr-19 03:29N 34°12' E 031°03'613.3
2018-Apr-19 03:00N 34°12' E 031°10'612.8
2018-Apr-19 02:30N 34°11' E 031°18'612.9
2018-Apr-19 02:00N 34°11' E 031°26'713.0
2018-Apr-19 01:30N 34°10' E 031°34'613.0
2018-Apr-19 01:00N 34°10' E 031°42'713.1
2018-Apr-19 00:31N 34°09' E 031°49'713.2
2018-Apr-19 00:01N 34°08' E 031°57'613.0
2018-Apr-18 23:31N 34°08' E 032°05'612.6
2018-Apr-18 23:00N 34°07' E 032°13'612.5
2018-Apr-18 22:30N 34°07' E 032°20'612.8
2018-Apr-18 22:01N 34°06' E 032°28'713.0
2018-Apr-18 21:30N 34°06' E 032°36'713.0
2018-Apr-18 21:00N 34°05' E 032°44'713.2
2018-Apr-18 20:31N 34°05' E 032°51'1213.3
2018-Apr-18 19:34N 34°04' E 033°07'113.4
2018-Apr-18 19:31N 34°03' E 033°07'813.5
2018-Apr-18 18:56N 34°03' E 033°17'613.5
2018-Apr-18 18:30N 34°02' E 033°24'713.7
2018-Apr-18 17:58N 34°02' E 033°33'4814.2
2018-Apr-18 14:35N 33°58' E 034°30'38 3.8
2018-Apr-18 04:36N 33°55' E 035°17'112.3
2018-Apr-18 04:29N 33°55' E 035°15'8411.1
2018-Apr-17 20:55N 34°03' E 033°34'511.4
2018-Apr-17 20:30N 34°03' E 033°28'611.5
2018-Apr-17 20:00N 34°04' E 033°21'611.6
2018-Apr-17 19:31N 34°05' E 033°14'2712.1
2018-Apr-17 17:16N 34°07' E 032°42'412.3
2018-Apr-17 16:58N 34°07' E 032°37'612.4
2018-Apr-17 16:29N 34°08' E 032°30'2 3.9
2018-Apr-17 16:01N 34°08' E 032°28'612.4
2018-Apr-17 15:30N 34°09' E 032°20'612.3
2018-Apr-17 15:00N 34°09' E 032°13'612.0
2018-Apr-17 14:30N 34°10' E 032°06'611.8
2018-Apr-17 14:00N 34°10' E 031°59'611.8
2018-Apr-17 13:30N 34°11' E 031°51'611.9
2018-Apr-17 13:00N 34°12' E 031°44'612.2
2018-Apr-17 12:30N 34°12' E 031°37'612.3
2018-Apr-17 12:00N 34°13' E 031°30'612.1
2018-Apr-17 11:30N 34°13' E 031°22'611.6
2018-Apr-17 11:00N 34°14' E 031°15'611.5
2018-Apr-17 10:30N 34°15' E 031°08'611.5
2018-Apr-17 10:00N 34°15' E 031°01'811.6
2018-Apr-17 09:21N 34°16' E 030°52'711.5
2018-Apr-17 08:44N 34°16' E 030°44'311.5
2018-Apr-17 08:30N 34°17' E 030°41'611.6
2018-Apr-17 08:00N 34°17' E 030°34'611.6
2018-Apr-17 07:30N 34°18' E 030°27'611.6
2018-Apr-17 07:00N 34°18' E 030°20'611.6
2018-Apr-17 06:30N 34°19' E 030°13'611.7
2018-Apr-17 06:00N 34°19' E 030°06'124 9.8
2018-Apr-16 17:19N 34°31' E 027°36'  
2018-Apr-13 13:48N 34°23' E 027°58'3 1.5
2018-Apr-13 11:31N 34°23' E 028°03'112.1
2018-Apr-13 11:28N 34°22' E 028°03'712.3
2018-Apr-13 10:56N 34°18' E 028°09'512.2
2018-Apr-13 10:30N 34°15' E 028°15'712.3
2018-Apr-13 09:58N 34°11' E 028°21'3612.7
2018-Apr-13 07:07N 33°48' E 028°55'7312.1
2018-Apr-13 01:06N 33°03' E 030°03'112.8
2018-Apr-13 01:00N 33°02' E 030°04'1012.8
2018-Apr-13 00:12N 32°56' E 030°14'212.8
2018-Apr-13 00:00N 32°54' E 030°16'612.9
2018-Apr-12 23:30N 32°50' E 030°22'1012.8
2018-Apr-12 22:45N 32°44' E 030°31'412.6
2018-Apr-12 22:28N 32°42' E 030°34'2412.7
2018-Apr-12 20:33N 32°27' E 030°57'112.9
2018-Apr-12 20:28N 32°26' E 030°58'2012.5
2018-Apr-12 18:51N 32°14' E 031°17'  
Track history (hours):
 
Tides and Currents Weather Stations Pressure Air Temp Water Temp Dewpoint Dewpoint Depression Visibility Wind Speed Wind Dir Waves Ship Positions

Black Eagle

Owner: Sealift Inc., Oyster Bay, NY. More information available from US FCC via Universal Licensing System and Coast Guard Vessel Documentation Center.

Last reported at 2018-Apr-21 06:40 UTC. Time now 2018-Apr-21 09:56 UTC.
Position N 35°49' E 016°33'.

Length 190 m; draft 9 m.

Type: Cargo ship. MMSI: 369542000.

Date/timePositionNaut miles runAvg speedWind from/ knotsBaromVisibWave heightAir tempDewpointWater temp
2018-Apr-21 06:40N 35°49' E 016°33'315.3
2018-Apr-21 06:30N 35°48' E 016°36'69114.1
2018-Apr-19 05:25N 34°14' E 030°32'913.1
2018-Apr-19 04:42N 34°14' E 030°43'313.2
2018-Apr-19 04:30N 34°13' E 030°46'713.3
2018-Apr-19 04:01N 34°13' E 030°54'713.4
2018-Apr-19 03:29N 34°12' E 031°03'613.3
2018-Apr-19 03:00N 34°12' E 031°10'612.8
2018-Apr-19 02:30N 34°11' E 031°18'612.9
2018-Apr-19 02:00N 34°11' E 031°26'713.0
2018-Apr-19 01:30N 34°10' E 031°34'613.0
2018-Apr-19 01:00N 34°10' E 031°42'713.1
2018-Apr-19 00:31N 34°09' E 031°49'713.2
2018-Apr-19 00:01N 34°08' E 031°57'613.0
2018-Apr-18 23:31N 34°08' E 032°05'612.6
2018-Apr-18 23:00N 34°07' E 032°13'612.5
2018-Apr-18 22:30N 34°07' E 032°20'612.8
2018-Apr-18 22:01N 34°06' E 032°28'713.0
2018-Apr-18 21:30N 34°06' E 032°36'713.0
2018-Apr-18 21:00N 34°05' E 032°44'713.2
2018-Apr-18 20:31N 34°05' E 032°51'1213.3
2018-Apr-18 19:34N 34°04' E 033°07'113.4
2018-Apr-18 19:31N 34°03' E 033°07'813.5
2018-Apr-18 18:56N 34°03' E 033°17'613.5
2018-Apr-18 18:30N 34°02' E 033°24'713.7
2018-Apr-18 17:58N 34°02' E 033°33'4814.2
2018-Apr-18 14:35N 33°58' E 034°30'38 3.8
2018-Apr-18 04:36N 33°55' E 035°17'112.3
2018-Apr-18 04:29N 33°55' E 035°15'8411.1
2018-Apr-17 20:55N 34°03' E 033°34'511.4
2018-Apr-17 20:30N 34°03' E 033°28'611.5
2018-Apr-17 20:00N 34°04' E 033°21'611.6
2018-Apr-17 19:31N 34°05' E 033°14'2712.1
2018-Apr-17 17:16N 34°07' E 032°42'412.3
2018-Apr-17 16:58N 34°07' E 032°37'612.4
2018-Apr-17 16:29N 34°08' E 032°30'2 3.9
2018-Apr-17 16:01N 34°08' E 032°28'612.4
2018-Apr-17 15:30N 34°09' E 032°20'612.3
2018-Apr-17 15:00N 34°09' E 032°13'612.0
2018-Apr-17 14:30N 34°10' E 032°06'611.8
2018-Apr-17 14:00N 34°10' E 031°59'611.8
2018-Apr-17 13:30N 34°11' E 031°51'611.9
2018-Apr-17 13:00N 34°12' E 031°44'612.2
2018-Apr-17 12:30N 34°12' E 031°37'612.3
2018-Apr-17 12:00N 34°13' E 031°30'612.1
2018-Apr-17 11:30N 34°13' E 031°22'611.6
2018-Apr-17 11:00N 34°14' E 031°15'611.5
2018-Apr-17 10:30N 34°15' E 031°08'611.5
2018-Apr-17 10:00N 34°15' E 031°01'811.6
2018-Apr-17 09:21N 34°16' E 030°52'711.5
2018-Apr-17 08:44N 34°16' E 030°44'311.5
2018-Apr-17 08:30N 34°17' E 030°41'611.6
2018-Apr-17 08:00N 34°17' E 030°34'611.6
2018-Apr-17 07:30N 34°18' E 030°27'611.6
2018-Apr-17 07:00N 34°18' E 030°20'611.6
2018-Apr-17 06:30N 34°19' E 030°13'611.7
2018-Apr-17 06:00N 34°19' E 030°06'124 9.8
2018-Apr-16 17:19N 34°31' E 027°36'  
2018-Apr-13 13:48N 34°23' E 027°58'3 1.5
2018-Apr-13 11:31N 34°23' E 028°03'112.1
2018-Apr-13 11:28N 34°22' E 028°03'712.3
2018-Apr-13 10:56N 34°18' E 028°09'512.2
2018-Apr-13 10:30N 34°15' E 028°15'712.3
2018-Apr-13 09:58N 34°11' E 028°21'3612.7
2018-Apr-13 07:07N 33°48' E 028°55'7312.1
2018-Apr-13 01:06N 33°03' E 030°03'112.8
2018-Apr-13 01:00N 33°02' E 030°04'1012.8
2018-Apr-13 00:12N 32°56' E 030°14'212.8
2018-Apr-13 00:00N 32°54' E 030°16'612.9
2018-Apr-12 23:30N 32°50' E 030°22'1012.8
2018-Apr-12 22:45N 32°44' E 030°31'412.6
2018-Apr-12 22:28N 32°42' E 030°34'2412.7
2018-Apr-12 20:33N 32°27' E 030°57'112.9
2018-Apr-12 20:28N 32°26' E 030°58'2012.5
2018-Apr-12 18:51N 32°14' E 031°17'  

Dump ship's entire track history